Terminal Aerodrome Forecast
Issued by NWS

Home | Current Version | Previous Version | Text Only | Print | Product List | Glossary On
Versions: 1 2 3 4 5 6 7 8 9 10 11 12 13 14 15 16
000
FTUS44 KLZK 201900 AAA
TAFLLQ
TAF AMD
KLLQ 201900Z 2019/2118 18010G19KT P6SM VCSH SCT020 BKN060
      TEMPO 2019/2023 BKN025
     FM210200 16008KT P6SM -DZ OVC015
     FM210900 17008G16KT 5SM -DZ BR OVC007=

USA.gov is the U.S. government's official web portal to all federal, state and local government web resources and services.